sensor_id;sensor_type;location;lat;lon;timestamp;temperature;humidity
3566;DHT22;1797;51.844;7.684;2023-01-01T00:02:12;16.40;1.00
3566;DHT22;1797;51.844;7.684;2023-01-01T00:04:38;16.30;1.00
3566;DHT22;1797;51.844;7.684;2023-01-01T00:07:03;16.40;1.00
3566;DHT22;1797;51.844;7.684;2023-01-01T00:09:29;16.40;1.00
3566;DHT22;1797;51.844;7.684;2023-01-01T00:12:13;16.30;1.00
3566;DHT22;1797;51.844;7.684;2023-01-01T00:14:39;16.40;1.00
3566;DHT22;1797;51.844;7.684;2023-01-01T00:17:07;16.40;1.00
3566;DHT22;1797;51.844;7.684;2023-01-01T00:19:32;16.40;1.00
3566;DHT22;1797;51.844;7.684;2023-01-01T00:21:58;16.40;1.00
3566;DHT22;1797;51.844;7.684;2023-01-01T00:24:23;16.40;1.00
3566;DHT22;1797;51.844;7.684;2023-01-01T00:26:49;16.40;1.00
3566;DHT22;1797;51.844;7.684;2023-01-01T00:29:15;16.40;1.00
3566;DHT22;1797;51.844;7.684;2023-01-01T00:31:40;16.40;1.00
3566;DHT22;1797;51.844;7.684;2023-01-01T00:34:08;16.40;1.00
3566;DHT22;1797;51.844;7.684;2023-01-01T00:36:33;16.30;1.00
3566;DHT22;1797;51.844;7.684;2023-01-01T00:39:01;16.30;1.00
3566;DHT22;1797;51.844;7.684;2023-01-01T00:41:26;16.30;1.00
3566;DHT22;1797;51.844;7.684;2023-01-01T00:43:52;16.40;1.00
3566;DHT22;1797;51.844;7.684;2023-01-01T00:46:17;16.30;1.00
3566;DHT22;1797;51.844;7.684;2023-01-01T00:48:44;16.20;1.00
3566;DHT22;1797;51.844;7.684;2023-01-01T00:51:11;16.20;1.00
3566;DHT22;1797;51.844;7.684;2023-01-01T00:53:37;16.10;1.00
3566;DHT22;1797;51.844;7.684;2023-01-01T00:56:05;16.20;1.00
3566;DHT22;1797;51.844;7.684;2023-01-01T00:58:30;16.20;1.00
3566;DHT22;1797;51.844;7.684;2023-01-01T01:00:56;16.20;1.00
3566;DHT22;1797;51.844;7.684;2023-01-01T01:03:22;16.20;1.00
3566;DHT22;1797;51.844;7.684;2023-01-01T01:05:58;16.20;1.00
3566;DHT22;1797;51.844;7.684;2023-01-01T01:08:26;16.20;1.00
3566;DHT22;1797;51.844;7.684;2023-01-01T01:10:52;16.20;1.00
3566;DHT22;1797;51.844;7.684;2023-01-01T01:13:18;16.20;1.00
3566;DHT22;1797;51.844;7.684;2023-01-01T01:15:43;16.20;1.00
3566;DHT22;1797;51.844;7.684;2023-01-01T01:18:09;16.10;1.00
3566;DHT22;1797;51.844;7.684;2023-01-01T01:20:35;16.10;1.00
3566;DHT22;1797;51.844;7.684;2023-01-01T01:23:00;16.10;1.00
3566;DHT22;1797;51.844;7.684;2023-01-01T01:25:26;16.10;1.00
3566;DHT22;1797;51.844;7.684;2023-01-01T01:27:51;16.10;1.00
3566;DHT22;1797;51.844;7.684;2023-01-01T01:30:17;16.10;1.00
3566;DHT22;1797;51.844;7.684;2023-01-01T01:32:43;16.10;1.00
3566;DHT22;1797;51.844;7.684;2023-01-01T01:35:09;16.10;1.00
3566;DHT22;1797;51.844;7.684;2023-01-01T01:37:35;16.10;1.00
3566;DHT22;1797;51.844;7.684;2023-01-01T01:40:00;16.00;1.00
3566;DHT22;1797;51.844;7.684;2023-01-01T01:42:26;16.00;1.00
3566;DHT22;1797;51.844;7.684;2023-01-01T01:45:00;16.10;1.00
3566;DHT22;1797;51.844;7.684;2023-01-01T01:47:50;15.90;1.00
3566;DHT22;1797;51.844;7.684;2023-01-01T01:50:20;16.00;1.00
3566;DHT22;1797;51.844;7.684;2023-01-01T01:55:35;16.00;1.00
3566;DHT22;1797;51.844;7.684;2023-01-01T01:58:02;16.00;1.00
3566;DHT22;1797;51.844;7.684;2023-01-01T02:00:29;16.00;1.00
3566;DHT22;1797;51.844;7.684;2023-01-01T02:03:15;16.00;1.00
3566;DHT22;1797;51.844;7.684;2023-01-01T02:05:42;16.00;1.00
3566;DHT22;1797;51.844;7.684;2023-01-01T02:08:09;16.00;1.00
3566;DHT22;1797;51.844;7.684;2023-01-01T02:10:36;16.10;1.00
3566;DHT22;1797;51.844;7.684;2023-01-01T02:13:02;16.00;1.00
3566;DHT22;1797;51.844;7.684;2023-01-01T02:15:30;16.00;1.00
3566;DHT22;1797;51.844;7.684;2023-01-01T02:20:48;15.90;1.00
3566;DHT22;1797;51.844;7.684;2023-01-01T02:23:36;15.90;1.00
3566;DHT22;1797;51.844;7.684;2023-01-01T02:31:27;15.90;1.00
3566;DHT22;1797;51.844;7.684;2023-01-01T02:33:58;15.80;1.00
3566;DHT22;1797;51.844;7.684;2023-01-01T02:36:25;15.80;1.00
3566;DHT22;1797;51.844;7.684;2023-01-01T02:38:54;15.70;1.00
3566;DHT22;1797;51.844;7.684;2023-01-01T02:41:27;15.70;1.00
3566;DHT22;1797;51.844;7.684;2023-01-01T02:43:54;15.70;1.00
3566;DHT22;1797;51.844;7.684;2023-01-01T02:46:20;15.70;1.00
3566;DHT22;1797;51.844;7.684;2023-01-01T02:48:51;15.70;1.00
3566;DHT22;1797;51.844;7.684;2023-01-01T02:51:50;15.70;1.00
3566;DHT22;1797;51.844;7.684;2023-01-01T02:54:32;15.60;1.00
3566;DHT22;1797;51.844;7.684;2023-01-01T02:57:30;15.60;1.00
3566;DHT22;1797;51.844;7.684;2023-01-01T03:00:06;15.50;1.00
3566;DHT22;1797;51.844;7.684;2023-01-01T03:03:14;15.50;1.00
3566;DHT22;1797;51.844;7.684;2023-01-01T03:12:21;15.40;1.00
3566;DHT22;1797;51.844;7.684;2023-01-01T03:15:02;15.40;1.00
3566;DHT22;1797;51.844;7.684;2023-01-01T03:17:34;15.40;1.00
3566;DHT22;1797;51.844;7.684;2023-01-01T03:20:12;15.40;1.00
3566;DHT22;1797;51.844;7.684;2023-01-01T03:22:40;15.40;1.00
3566;DHT22;1797;51.844;7.684;2023-01-01T03:25:11;15.40;1.00
3566;DHT22;1797;51.844;7.684;2023-01-01T03:27:44;15.30;1.00
3566;DHT22;1797;51.844;7.684;2023-01-01T03:30:12;15.30;1.00
3566;DHT22;1797;51.844;7.684;2023-01-01T03:33:01;15.30;1.00
3566;DHT22;1797;51.844;7.684;2023-01-01T03:35:50;15.20;1.00
3566;DHT22;1797;51.844;7.684;2023-01-01T03:38:23;15.20;1.00
3566;DHT22;1797;51.844;7.684;2023-01-01T03:40:53;15.20;1.00
3566;DHT22;1797;51.844;7.684;2023-01-01T03:43:49;15.20;1.00
3566;DHT22;1797;51.844;7.684;2023-01-01T03:46:16;15.20;1.00
3566;DHT22;1797;51.844;7.684;2023-01-01T03:48:43;15.20;1.00
3566;DHT22;1797;51.844;7.684;2023-01-01T03:54:01;15.20;1.00
3566;DHT22;1797;51.844;7.684;2023-01-01T03:56:51;15.20;1.00
3566;DHT22;1797;51.844;7.684;2023-01-01T03:59:23;15.20;1.00
3566;DHT22;1797;51.844;7.684;2023-01-01T04:01:55;15.20;1.00
3566;DHT22;1797;51.844;7.684;2023-01-01T04:04:23;15.20;1.00
3566;DHT22;1797;51.844;7.684;2023-01-01T04:06:50;15.20;1.00
3566;DHT22;1797;51.844;7.684;2023-01-01T04:09:22;15.20;1.00
3566;DHT22;1797;51.844;7.684;2023-01-01T04:11:48;15.20;1.00
3566;DHT22;1797;51.844;7.684;2023-01-01T04:14:36;15.20;1.00
3566;DHT22;1797;51.844;7.684;2023-01-01T04:17:02;15.20;1.00
3566;DHT22;1797;51.844;7.684;2023-01-01T04:19:29;15.10;1.00
3566;DHT22;1797;51.844;7.684;2023-01-01T04:21:54;15.10;1.00
3566;DHT22;1797;51.844;7.684;2023-01-01T04:24:20;15.10;1.00
3566;DHT22;1797;51.844;7.684;2023-01-01T04:26:47;15.10;1.00
3566;DHT22;1797;51.844;7.684;2023-01-01T04:29:13;15.00;1.00
3566;DHT22;1797;51.844;7.684;2023-01-01T04:31:39;15.00;1.00
3566;DHT22;1797;51.844;7.684;2023-01-01T04:34:04;15.00;1.00
3566;DHT22;1797;51.844;7.684;2023-01-01T04:36:30;14.90;1.00
3566;DHT22;1797;51.844;7.684;2023-01-01T04:38:56;14.80;1.00
3566;DHT22;1797;51.844;7.684;2023-01-01T04:41:21;14.80;1.00
3566;DHT22;1797;51.844;7.684;2023-01-01T04:43:48;14.80;1.00
3566;DHT22;1797;51.844;7.684;2023-01-01T04:46:20;14.80;1.00
3566;DHT22;1797;51.844;7.684;2023-01-01T04:48:47;14.90;1.00
3566;DHT22;1797;51.844;7.684;2023-01-01T04:51:14;15.00;1.00
3566;DHT22;1797;51.844;7.684;2023-01-01T04:53:40;15.10;1.00
3566;DHT22;1797;51.844;7.684;2023-01-01T04:56:08;15.00;1.00
3566;DHT22;1797;51.844;7.684;2023-01-01T04:58:35;15.00;1.00
3566;DHT22;1797;51.844;7.684;2023-01-01T05:01:02;15.00;1.00
3566;DHT22;1797;51.844;7.684;2023-01-01T05:03:28;15.00;1.00
3566;DHT22;1797;51.844;7.684;2023-01-01T05:06:07;14.90;1.00
3566;DHT22;1797;51.844;7.684;2023-01-01T05:08:35;15.00;1.00
3566;DHT22;1797;51.844;7.684;2023-01-01T05:11:06;14.90;1.00
3566;DHT22;1797;51.844;7.684;2023-01-01T05:13:33;14.80;1.00
3566;DHT22;1797;51.844;7.684;2023-01-01T05:16:02;14.80;1.00
3566;DHT22;1797;51.844;7.684;2023-01-01T05:18:28;14.90;1.00
3566;DHT22;1797;51.844;7.684;2023-01-01T05:21:17;14.80;1.00
3566;DHT22;1797;51.844;7.684;2023-01-01T05:23:44;14.80;1.00
3566;DHT22;1797;51.844;7.684;2023-01-01T05:26:18;14.80;1.00
3566;DHT22;1797;51.844;7.684;2023-01-01T05:28:45;14.70;1.00
3566;DHT22;1797;51.844;7.684;2023-01-01T05:31:13;14.60;1.00
3566;DHT22;1797;51.844;7.684;2023-01-01T05:33:40;14.50;1.00
3566;DHT22;1797;51.844;7.684;2023-01-01T05:36:07;14.40;1.00
3566;DHT22;1797;51.844;7.684;2023-01-01T05:38:34;14.20;1.00
3566;DHT22;1797;51.844;7.684;2023-01-01T05:41:07;14.10;1.00
3566;DHT22;1797;51.844;7.684;2023-01-01T05:43:33;14.10;1.00
3566;DHT22;1797;51.844;7.684;2023-01-01T05:46:01;14.00;1.00
3566;DHT22;1797;51.844;7.684;2023-01-01T05:48:27;14.00;1.00
3566;DHT22;1797;51.844;7.684;2023-01-01T05:50:52;14.00;1.00
3566;DHT22;1797;51.844;7.684;2023-01-01T05:53:18;14.10;1.00
3566;DHT22;1797;51.844;7.684;2023-01-01T05:55:43;14.10;1.00
3566;DHT22;1797;51.844;7.684;2023-01-01T05:58:09;14.10;1.00
3566;DHT22;1797;51.844;7.684;2023-01-01T06:00:34;14.20;1.00
3566;DHT22;1797;51.844;7.684;2023-01-01T06:03:00;14.20;1.00
3566;DHT22;1797;51.844;7.684;2023-01-01T06:05:26;14.20;1.00
3566;DHT22;1797;51.844;7.684;2023-01-01T06:07:51;14.20;1.00
3566;DHT22;1797;51.844;7.684;2023-01-01T06:10:17;14.20;1.00
3566;DHT22;1797;51.844;7.684;2023-01-01T06:12:42;14.20;1.00
3566;DHT22;1797;51.844;7.684;2023-01-01T06:15:08;14.20;1.00
3566;DHT22;1797;51.844;7.684;2023-01-01T06:17:33;14.20;1.00
3566;DHT22;1797;51.844;7.684;2023-01-01T06:19:59;14.30;1.00
3566;DHT22;1797;51.844;7.684;2023-01-01T06:22:25;14.30;1.00
3566;DHT22;1797;51.844;7.684;2023-01-01T06:24:50;14.40;1.00
3566;DHT22;1797;51.844;7.684;2023-01-01T06:27:16;14.40;1.00
3566;DHT22;1797;51.844;7.684;2023-01-01T06:29:41;14.40;1.00
3566;DHT22;1797;51.844;7.684;2023-01-01T06:32:07;14.40;1.00
3566;DHT22;1797;51.844;7.684;2023-01-01T06:34:32;14.40;1.00
3566;DHT22;1797;51.844;7.684;2023-01-01T06:36:58;14.40;1.00
3566;DHT22;1797;51.844;7.684;2023-01-01T06:39:24;14.40;1.00
3566;DHT22;1797;51.844;7.684;2023-01-01T06:41:49;14.40;1.00
3566;DHT22;1797;51.844;7.684;2023-01-01T06:44:15;14.40;1.00
3566;DHT22;1797;51.844;7.684;2023-01-01T06:46:40;14.50;1.00
3566;DHT22;1797;51.844;7.684;2023-01-01T06:49:09;14.50;1.00
3566;DHT22;1797;51.844;7.684;2023-01-01T06:51:37;14.50;1.00
3566;DHT22;1797;51.844;7.684;2023-01-01T06:54:04;14.50;1.00
3566;DHT22;1797;51.844;7.684;2023-01-01T06:56:30;14.50;1.00
3566;DHT22;1797;51.844;7.684;2023-01-01T06:58:56;14.50;1.00
3566;DHT22;1797;51.844;7.684;2023-01-01T07:01:24;14.50;1.00
3566;DHT22;1797;51.844;7.684;2023-01-01T07:03:55;14.40;1.00
3566;DHT22;1797;51.844;7.684;2023-01-01T07:06:21;14.40;1.00
3566;DHT22;1797;51.844;7.684;2023-01-01T07:08:47;14.50;1.00
3566;DHT22;1797;51.844;7.684;2023-01-01T07:11:13;14.50;1.00
3566;DHT22;1797;51.844;7.684;2023-01-01T07:13:38;14.50;1.00
3566;DHT22;1797;51.844;7.684;2023-01-01T07:16:04;14.50;1.00
3566;DHT22;1797;51.844;7.684;2023-01-01T07:18:31;14.40;1.00
3566;DHT22;1797;51.844;7.684;2023-01-01T07:20:58;14.40;1.00
3566;DHT22;1797;51.844;7.684;2023-01-01T07:23:25;14.40;1.00
3566;DHT22;1797;51.844;7.684;2023-01-01T07:25:52;14.40;1.00
3566;DHT22;1797;51.844;7.684;2023-01-01T07:28:18;14.40;1.00
3566;DHT22;1797;51.844;7.684;2023-01-01T07:30:44;14.40;1.00
3566;DHT22;1797;51.844;7.684;2023-01-01T07:33:15;14.40;1.00
3566;DHT22;1797;51.844;7.684;2023-01-01T07:35:42;14.30;1.00
3566;DHT22;1797;51.844;7.684;2023-01-01T07:38:09;14.20;1.00
3566;DHT22;1797;51.844;7.684;2023-01-01T07:40:35;14.20;1.00
3566;DHT22;1797;51.844;7.684;2023-01-01T07:43:00;14.20;1.00
3566;DHT22;1797;51.844;7.684;2023-01-01T07:45:26;14.20;1.00
3566;DHT22;1797;51.844;7.684;2023-01-01T07:47:56;14.10;1.00
3566;DHT22;1797;51.844;7.684;2023-01-01T07:50:23;14.00;1.00
3566;DHT22;1797;51.844;7.684;2023-01-01T07:52:49;13.90;76.90
3566;DHT22;1797;51.844;7.684;2023-01-01T07:55:16;13.80;99.90
3566;DHT22;1797;51.844;7.684;2023-01-01T07:57:43;13.70;99.90
3566;DHT22;1797;51.844;7.684;2023-01-01T08:00:11;13.50;1.00
3566;DHT22;1797;51.844;7.684;2023-01-01T08:02:37;13.40;1.00
3566;DHT22;1797;51.844;7.684;2023-01-01T08:05:03;13.30;99.90
3566;DHT22;1797;51.844;7.684;2023-01-01T08:07:29;13.10;1.00
3566;DHT22;1797;51.844;7.684;2023-01-01T08:09:54;13.10;99.90
3566;DHT22;1797;51.844;7.684;2023-01-01T08:12:20;13.00;99.90
3566;DHT22;1797;51.844;7.684;2023-01-01T08:14:45;12.90;1.00
3566;DHT22;1797;51.844;7.684;2023-01-01T08:17:11;12.90;1.00
3566;DHT22;1797;51.844;7.684;2023-01-01T08:19:37;12.80;99.90
3566;DHT22;1797;51.844;7.684;2023-01-01T08:22:02;12.80;1.00
3566;DHT22;1797;51.844;7.684;2023-01-01T08:24:28;12.80;1.00
3566;DHT22;1797;51.844;7.684;2023-01-01T08:26:53;12.80;99.90
3566;DHT22;1797;51.844;7.684;2023-01-01T08:29:19;12.70;99.90
3566;DHT22;1797;51.844;7.684;2023-01-01T08:31:45;12.70;1.00
3566;DHT22;1797;51.844;7.684;2023-01-01T08:34:11;12.70;99.90
3566;DHT22;1797;51.844;7.684;2023-01-01T08:36:37;12.60;29.90
3566;DHT22;1797;51.844;7.684;2023-01-01T08:39:05;12.60;99.90
3566;DHT22;1797;51.844;7.684;2023-01-01T08:41:31;12.60;1.00
3566;DHT22;1797;51.844;7.684;2023-01-01T08:43:57;12.50;99.90
3566;DHT22;1797;51.844;7.684;2023-01-01T08:46:23;12.50;1.00
3566;DHT22;1797;51.844;7.684;2023-01-01T08:48:48;12.50;1.00
3566;DHT22;1797;51.844;7.684;2023-01-01T08:51:14;12.50;1.00
3566;DHT22;1797;51.844;7.684;2023-01-01T08:53:40;12.50;1.00
3566;DHT22;1797;51.844;7.684;2023-01-01T08:56:08;12.50;99.90
3566;DHT22;1797;51.844;7.684;2023-01-01T08:58:38;12.40;81.40
3566;DHT22;1797;51.844;7.684;2023-01-01T09:01:05;12.30;1.00
3566;DHT22;1797;51.844;7.684;2023-01-01T09:03:31;12.30;1.00
3566;DHT22;1797;51.844;7.684;2023-01-01T09:05:57;12.30;1.00
3566;DHT22;1797;51.844;7.684;2023-01-01T09:08:23;12.30;41.00
3566;DHT22;1797;51.844;7.684;2023-01-01T09:10:49;12.30;99.90
3566;DHT22;1797;51.844;7.684;2023-01-01T09:13:20;12.20;1.00
3566;DHT22;1797;51.844;7.684;2023-01-01T09:15:46;12.20;1.00
3566;DHT22;1797;51.844;7.684;2023-01-01T09:18:12;12.20;72.20
3566;DHT22;1797;51.844;7.684;2023-01-01T09:20:38;12.00;99.90
3566;DHT22;1797;51.844;7.684;2023-01-01T09:23:05;12.00;99.90
3566;DHT22;1797;51.844;7.684;2023-01-01T09:25:33;12.00;99.90
3566;DHT22;1797;51.844;7.684;2023-01-01T09:28:04;11.90;99.90
3566;DHT22;1797;51.844;7.684;2023-01-01T09:30:30;11.90;99.90
3566;DHT22;1797;51.844;7.684;2023-01-01T09:32:56;11.90;99.90
3566;DHT22;1797;51.844;7.684;2023-01-01T09:35:22;11.90;99.90
3566;DHT22;1797;51.844;7.684;2023-01-01T09:37:48;11.90;99.90
3566;DHT22;1797;51.844;7.684;2023-01-01T09:40:47;11.90;99.90
3566;DHT22;1797;51.844;7.684;2023-01-01T09:45:59;11.80;99.90
3566;DHT22;1797;51.844;7.684;2023-01-01T09:48:28;11.80;99.90
3566;DHT22;1797;51.844;7.684;2023-01-01T09:50:54;11.80;99.90
3566;DHT22;1797;51.844;7.684;2023-01-01T09:56:00;11.90;99.90
3566;DHT22;1797;51.844;7.684;2023-01-01T09:58:28;12.00;99.90
3566;DHT22;1797;51.844;7.684;2023-01-01T10:01:02;11.90;99.90
3566;DHT22;1797;51.844;7.684;2023-01-01T10:14:17;12.00;99.90
3566;DHT22;1797;51.844;7.684;2023-01-01T10:16:49;12.00;99.90
3566;DHT22;1797;51.844;7.684;2023-01-01T10:21:54;12.00;99.90
3566;DHT22;1797;51.844;7.684;2023-01-01T10:30:17;12.00;99.90
3566;DHT22;1797;51.844;7.684;2023-01-01T10:32:47;12.00;99.90
3566;DHT22;1797;51.844;7.684;2023-01-01T10:35:15;12.00;99.90
3566;DHT22;1797;51.844;7.684;2023-01-01T10:37:41;12.00;99.90
3566;DHT22;1797;51.844;7.684;2023-01-01T10:42:47;12.00;99.90
3566;DHT22;1797;51.844;7.684;2023-01-01T10:48:19;12.00;99.90
3566;DHT22;1797;51.844;7.684;2023-01-01T10:50:55;12.00;99.90
3566;DHT22;1797;51.844;7.684;2023-01-01T10:53:31;12.00;99.90
3566;DHT22;1797;51.844;7.684;2023-01-01T10:58:44;12.00;99.90
3566;DHT22;1797;51.844;7.684;2023-01-01T11:01:18;12.10;99.90
3566;DHT22;1797;51.844;7.684;2023-01-01T11:04:19;12.10;99.90
3566;DHT22;1797;51.844;7.684;2023-01-01T11:06:45;12.10;99.90
3566;DHT22;1797;51.844;7.684;2023-01-01T11:09:28;12.10;99.90
3566;DHT22;1797;51.844;7.684;2023-01-01T11:11:58;12.00;99.90
3566;DHT22;1797;51.844;7.684;2023-01-01T11:14:27;12.00;99.90
3566;DHT22;1797;51.844;7.684;2023-01-01T11:16:55;12.10;99.90
3566;DHT22;1797;51.844;7.684;2023-01-01T11:21:58;12.10;8.80
3566;DHT22;1797;51.844;7.684;2023-01-01T11:24:26;12.20;1.00
3566;DHT22;1797;51.844;7.684;2023-01-01T11:27:10;12.30;1.00
3566;DHT22;1797;51.844;7.684;2023-01-01T11:29:36;12.40;99.90
3566;DHT22;1797;51.844;7.684;2023-01-01T11:32:06;12.50;1.00
3566;DHT22;1797;51.844;7.684;2023-01-01T11:34:39;12.60;99.90
3566;DHT22;1797;51.844;7.684;2023-01-01T11:37:34;12.70;99.90
3566;DHT22;1797;51.844;7.684;2023-01-01T11:40:06;12.90;99.90
3566;DHT22;1797;51.844;7.684;2023-01-01T11:42:44;13.10;99.90
3566;DHT22;1797;51.844;7.684;2023-01-01T11:45:15;13.30;99.90
3566;DHT22;1797;51.844;7.684;2023-01-01T11:47:43;13.50;99.90
3566;DHT22;1797;51.844;7.684;2023-01-01T11:52:40;13.90;60.10
3566;DHT22;1797;51.844;7.684;2023-01-01T11:58:00;14.20;1.00
3566;DHT22;1797;51.844;7.684;2023-01-01T12:00:31;14.30;1.00
3566;DHT22;1797;51.844;7.684;2023-01-01T12:03:03;14.20;1.00
3566;DHT22;1797;51.844;7.684;2023-01-01T12:05:46;14.20;1.00
3566;DHT22;1797;51.844;7.684;2023-01-01T12:08:15;14.10;99.90
3566;DHT22;1797;51.844;7.684;2023-01-01T12:10:57;14.10;99.90
3566;DHT22;1797;51.844;7.684;2023-01-01T12:13:29;14.10;99.90
3566;DHT22;1797;51.844;7.684;2023-01-01T12:15:59;14.20;99.90
3566;DHT22;1797;51.844;7.684;2023-01-01T12:21:17;14.20;99.90
3566;DHT22;1797;51.844;7.684;2023-01-01T12:23:43;14.20;99.90
3566;DHT22;1797;51.844;7.684;2023-01-01T12:29:21;14.20;99.90
3566;DHT22;1797;51.844;7.684;2023-01-01T12:32:42;14.30;99.90
3566;DHT22;1797;51.844;7.684;2023-01-01T12:38:00;14.40;99.90
3566;DHT22;1797;51.844;7.684;2023-01-01T12:40:41;14.30;99.90
3566;DHT22;1797;51.844;7.684;2023-01-01T12:43:30;14.30;99.90
3566;DHT22;1797;51.844;7.684;2023-01-01T12:46:10;14.30;99.90
3566;DHT22;1797;51.844;7.684;2023-01-01T12:51:52;14.30;99.90
3566;DHT22;1797;51.844;7.684;2023-01-01T12:54:36;14.20;99.90
3566;DHT22;1797;51.844;7.684;2023-01-01T12:57:35;14.10;99.90
3566;DHT22;1797;51.844;7.684;2023-01-01T13:00:14;14.10;99.90
3566;DHT22;1797;51.844;7.684;2023-01-01T13:02:47;14.00;99.90
3566;DHT22;1797;51.844;7.684;2023-01-01T13:05:31;14.00;99.90
3566;DHT22;1797;51.844;7.684;2023-01-01T13:08:02;14.00;99.90
3566;DHT22;1797;51.844;7.684;2023-01-01T13:10:34;14.00;99.90
3566;DHT22;1797;51.844;7.684;2023-01-01T13:13:02;14.00;99.90
3566;DHT22;1797;51.844;7.684;2023-01-01T13:15:51;14.00;99.90
3566;DHT22;1797;51.844;7.684;2023-01-01T13:18:25;14.00;99.90
3566;DHT22;1797;51.844;7.684;2023-01-01T13:34:34;13.90;99.90
3566;DHT22;1797;51.844;7.684;2023-01-01T13:37:28;13.90;99.90
3566;DHT22;1797;51.844;7.684;2023-01-01T13:45:28;13.80;99.90
3566;DHT22;1797;51.844;7.684;2023-01-01T13:56:46;13.80;99.90
3566;DHT22;1797;51.844;7.684;2023-01-01T13:59:43;13.80;99.90
3566;DHT22;1797;51.844;7.684;2023-01-01T14:02:23;13.80;99.90
3566;DHT22;1797;51.844;7.684;2023-01-01T14:04:57;13.80;99.90
3566;DHT22;1797;51.844;7.684;2023-01-01T14:07:41;13.80;99.90
3566;DHT22;1797;51.844;7.684;2023-01-01T14:12:46;13.60;99.90
3566;DHT22;1797;51.844;7.684;2023-01-01T14:15:21;13.60;99.90
3566;DHT22;1797;51.844;7.684;2023-01-01T14:17:49;13.60;99.90
3566;DHT22;1797;51.844;7.684;2023-01-01T14:20:18;13.60;99.90
3566;DHT22;1797;51.844;7.684;2023-01-01T14:22:46;13.50;99.90
3566;DHT22;1797;51.844;7.684;2023-01-01T14:25:25;13.50;99.90
3566;DHT22;1797;51.844;7.684;2023-01-01T14:27:55;13.50;99.90
3566;DHT22;1797;51.844;7.684;2023-01-01T14:30:22;13.50;99.90
3566;DHT22;1797;51.844;7.684;2023-01-01T14:32:58;13.50;99.90
3566;DHT22;1797;51.844;7.684;2023-01-01T14:35:25;13.40;99.90
3566;DHT22;1797;51.844;7.684;2023-01-01T14:37:51;13.40;1.00
3566;DHT22;1797;51.844;7.684;2023-01-01T14:40:22;13.40;1.00
3566;DHT22;1797;51.844;7.684;2023-01-01T14:43:04;13.40;1.00
3566;DHT22;1797;51.844;7.684;2023-01-01T14:45:33;13.30;1.00
3566;DHT22;1797;51.844;7.684;2023-01-01T14:48:00;13.30;1.00
3566;DHT22;1797;51.844;7.684;2023-01-01T14:50:30;13.30;1.00
3566;DHT22;1797;51.844;7.684;2023-01-01T14:53:05;13.30;1.00
3566;DHT22;1797;51.844;7.684;2023-01-01T14:55:37;13.30;1.00
3566;DHT22;1797;51.844;7.684;2023-01-01T14:58:03;13.30;1.00
3566;DHT22;1797;51.844;7.684;2023-01-01T15:00:31;13.30;1.00
3566;DHT22;1797;51.844;7.684;2023-01-01T15:03:06;13.30;1.00
3566;DHT22;1797;51.844;7.684;2023-01-01T15:05:34;13.20;1.00
3566;DHT22;1797;51.844;7.684;2023-01-01T15:08:02;13.20;1.00
3566;DHT22;1797;51.844;7.684;2023-01-01T15:10:30;13.20;1.00
3566;DHT22;1797;51.844;7.684;2023-01-01T15:12:56;13.20;1.00
3566;DHT22;1797;51.844;7.684;2023-01-01T15:15:45;13.20;1.00
3566;DHT22;1797;51.844;7.684;2023-01-01T15:18:43;13.20;1.00
3566;DHT22;1797;51.844;7.684;2023-01-01T15:23:53;13.10;1.00
3566;DHT22;1797;51.844;7.684;2023-01-01T15:26:48;13.00;1.00
3566;DHT22;1797;51.844;7.684;2023-01-01T15:29:27;12.90;1.00
3566;DHT22;1797;51.844;7.684;2023-01-01T15:31:56;12.80;1.00
3566;DHT22;1797;51.844;7.684;2023-01-01T15:34:31;12.70;1.00
3566;DHT22;1797;51.844;7.684;2023-01-01T15:37:21;12.70;1.00
3566;DHT22;1797;51.844;7.684;2023-01-01T15:39:57;12.60;1.00
3566;DHT22;1797;51.844;7.684;2023-01-01T15:42:36;12.50;1.00
3566;DHT22;1797;51.844;7.684;2023-01-01T15:47:53;12.60;1.00
3566;DHT22;1797;51.844;7.684;2023-01-01T15:50:22;12.60;1.00
3566;DHT22;1797;51.844;7.684;2023-01-01T15:52:51;12.60;1.00
3566;DHT22;1797;51.844;7.684;2023-01-01T15:55:18;12.60;1.00
3566;DHT22;1797;51.844;7.684;2023-01-01T15:57:45;12.60;1.00
3566;DHT22;1797;51.844;7.684;2023-01-01T16:00:26;12.70;1.00
3566;DHT22;1797;51.844;7.684;2023-01-01T16:02:57;12.70;1.00
3566;DHT22;1797;51.844;7.684;2023-01-01T16:05:24;12.80;99.90
3566;DHT22;1797;51.844;7.684;2023-01-01T16:08:02;12.80;99.90
3566;DHT22;1797;51.844;7.684;2023-01-01T16:10:28;12.80;99.90
3566;DHT22;1797;51.844;7.684;2023-01-01T16:12:54;12.80;99.90
3566;DHT22;1797;51.844;7.684;2023-01-01T16:15:19;12.80;99.90
3566;DHT22;1797;51.844;7.684;2023-01-01T16:17:45;12.80;99.90
3566;DHT22;1797;51.844;7.684;2023-01-01T16:20:15;12.80;99.90
3566;DHT22;1797;51.844;7.684;2023-01-01T16:22:41;12.80;99.90
3566;DHT22;1797;51.844;7.684;2023-01-01T16:25:12;12.80;99.90
3566;DHT22;1797;51.844;7.684;2023-01-01T16:27:38;12.80;99.90
3566;DHT22;1797;51.844;7.684;2023-01-01T16:30:04;12.80;99.90
3566;DHT22;1797;51.844;7.684;2023-01-01T16:32:30;12.70;99.90
3566;DHT22;1797;51.844;7.684;2023-01-01T16:34:55;12.70;99.90
3566;DHT22;1797;51.844;7.684;2023-01-01T16:37:21;12.70;99.90
3566;DHT22;1797;51.844;7.684;2023-01-01T16:39:47;12.70;99.90
3566;DHT22;1797;51.844;7.684;2023-01-01T16:42:13;12.70;1.00
3566;DHT22;1797;51.844;7.684;2023-01-01T16:44:42;12.70;1.00
3566;DHT22;1797;51.844;7.684;2023-01-01T16:47:09;12.70;1.00
3566;DHT22;1797;51.844;7.684;2023-01-01T16:49:34;12.70;1.00
3566;DHT22;1797;51.844;7.684;2023-01-01T16:52:00;12.60;1.00
3566;DHT22;1797;51.844;7.684;2023-01-01T16:54:26;12.60;1.00
3566;DHT22;1797;51.844;7.684;2023-01-01T16:56:52;12.60;1.00
3566;DHT22;1797;51.844;7.684;2023-01-01T16:59:17;12.60;1.00
3566;DHT22;1797;51.844;7.684;2023-01-01T17:01:43;12.50;99.90
3566;DHT22;1797;51.844;7.684;2023-01-01T17:04:10;12.50;99.90
3566;DHT22;1797;51.844;7.684;2023-01-01T17:06:37;12.50;1.00
3566;DHT22;1797;51.844;7.684;2023-01-01T17:09:03;12.30;99.90
3566;DHT22;1797;51.844;7.684;2023-01-01T17:11:29;12.30;1.00
3566;DHT22;1797;51.844;7.684;2023-01-01T17:13:56;12.20;1.00
3566;DHT22;1797;51.844;7.684;2023-01-01T17:16:22;12.20;99.90
3566;DHT22;1797;51.844;7.684;2023-01-01T17:18:51;12.10;1.00
3566;DHT22;1797;51.844;7.684;2023-01-01T17:21:17;12.10;99.90
3566;DHT22;1797;51.844;7.684;2023-01-01T17:23:43;12.00;99.90
3566;DHT22;1797;51.844;7.684;2023-01-01T17:26:11;12.00;1.00
3566;DHT22;1797;51.844;7.684;2023-01-01T17:28:38;12.00;99.90
3566;DHT22;1797;51.844;7.684;2023-01-01T17:31:05;11.90;1.00
3566;DHT22;1797;51.844;7.684;2023-01-01T17:33:31;11.90;99.90
3566;DHT22;1797;51.844;7.684;2023-01-01T17:35:57;11.90;99.90
3566;DHT22;1797;51.844;7.684;2023-01-01T17:38:23;11.90;30.00
3566;DHT22;1797;51.844;7.684;2023-01-01T17:40:49;11.80;62.50
3566;DHT22;1797;51.844;7.684;2023-01-01T17:43:15;11.80;1.00
3566;DHT22;1797;51.844;7.684;2023-01-01T17:45:40;11.70;99.90
3566;DHT22;1797;51.844;7.684;2023-01-01T17:48:06;11.70;1.00
3566;DHT22;1797;51.844;7.684;2023-01-01T17:50:31;11.70;99.90
3566;DHT22;1797;51.844;7.684;2023-01-01T17:52:57;11.60;1.00
3566;DHT22;1797;51.844;7.684;2023-01-01T17:55:23;11.70;1.00
3566;DHT22;1797;51.844;7.684;2023-01-01T17:57:50;11.60;1.00
3566;DHT22;1797;51.844;7.684;2023-01-01T18:00:16;11.60;1.00
3566;DHT22;1797;51.844;7.684;2023-01-01T18:02:44;11.50;99.90
3566;DHT22;1797;51.844;7.684;2023-01-01T18:05:10;11.60;99.90
3566;DHT22;1797;51.844;7.684;2023-01-01T18:07:36;11.60;99.90
3566;DHT22;1797;51.844;7.684;2023-01-01T18:10:03;11.60;99.90
3566;DHT22;1797;51.844;7.684;2023-01-01T18:12:29;11.50;1.00
3566;DHT22;1797;51.844;7.684;2023-01-01T18:14:54;11.50;1.00
3566;DHT22;1797;51.844;7.684;2023-01-01T18:17:20;11.40;1.00
3566;DHT22;1797;51.844;7.684;2023-01-01T18:19:46;11.50;1.00